KGLD/GLD METAR and TAF weather

Enter ICAO airport designator
Station Type Date Time Source
KGLD METAR 2020/09/22 17:53 UTC NOAA

KGLD 221753Z AUTO 17013KT 10SM CLR 29/05 A3010 RMK AO2 SLP152 T02890050 10289 20117 58007


Station Type Date Time Source
KGLD Decoded METAR 2020/09/22 17:53 UTC NOAA

GOODLAND RENNER FIELD, KS, United States (KGLD) 39-22N 101-42W 1114M
Sep 22, 2020 - 01:53 PM EDT / 2020.09.22 1753 UTC
Wind: from the S (170 degrees) at 15 MPH (13 KT):0
Visibility: 10 mile(s):0
Sky conditions: clear
Temperature: 84.0 F (28.9 C)
Dew Point: 41.0 F (5.0 C)
Relative Humidity: 21%
Pressure (altimeter): 30.1 in. Hg (1019 hPa)
Pressure tendency: 0.02 inches (0.7 hPa) lower than three hours ago
ob: KGLD 221753Z AUTO 17013KT 10SM CLR 29/05 A3010 RMK AO2 SLP152 T02890050 10289 20117 58007
cycle: 18

Station Type Date Time Source
KGLD TAF 2020/09/22 18:42 UTC NOAA

TAF KGLD 221738Z 2218/2318 15008KT P6SM SKC
FM231400 24005KT P6SM SKC

Example: see airport list